Flight Track Log - Related Links

Times and Time Zones

All times are in EDT time to prevent confusion due to time zone crossing. See the TCF3494 flight status page for this flight to view local times or setup timezone preferences in your user account.

Time Position Orientation Groundspeed Altitude Reporting Facility
EDT Latitude Longitude Course Direction KTS MPH feet Rate Location/Type
Thu 10:26:37 AM 39.9167 -104.7833 276° West 220 253 8,800  Level Denver TRACON
Thu 10:27:37 AM 39.9333 -104.8667 285° West 285 328 10,000 1,650 Climbing Denver TRACON
Thu 10:28:00 AM 39.9463 -105.2091 275° West  Level Estimated
Thu 10:28:37 AM 39.9333 -104.9833 270° West 288 331 12,100  Level Denver TRACON
Thu 10:29:00 AM 39.9474 -105.3460 271° West  Level FlightAware Approximate
Thu 10:29:37 AM 39.9333 -105.0833 270° West 287 330 15,300  Level Denver TRACON
Thu 10:30:00 AM 39.9684 -105.4802 277° West  Level Estimated
Thu 10:30:08 AM 39.9314 -105.1244 266° West 284 327 16,800  Level Denver Center
Thu 10:31:00 AM 39.9892 -105.6144 276° West  Level Estimated
Thu 10:31:10 AM 39.9319 -105.2353 270° West 294 338 19,100  Level Denver Center
Thu 10:32:12 AM 39.9444 -105.3539 278° West 332 382 21,200 2,081 Climbing Denver Center
Thu 10:33:14 AM 39.9547 -105.4764 276° West 342 394 23,400 2,032 Climbing Denver Center
Thu 10:34:16 AM 39.9656 -105.6031 276° West 350 403 25,400 1,839 Climbing Denver Center
Thu 10:35:18 AM 39.9731 -105.7331 274° West 357 411 27,200 1,694 Climbing Denver Center
Thu 10:36:20 AM 39.9731 -105.8631 270° West 357 411 28,900 1,597 Climbing Denver Center
Thu 10:37:22 AM 39.9806 -106.0258 273° West 373 429 30,500 1,403 Climbing Denver Center
Thu 10:38:24 AM 39.9894 -106.1644 275° West 381 438 31,800 1,306 Climbing Denver Center
Thu 10:39:26 AM 39.9939 -106.3028 272° West 383 441 33,200 1,403 Climbing Denver Center
Thu 10:40:28 AM 40.0019 -106.4392 274° West 380 437 34,700 1,210 Climbing Denver Center
Thu 10:41:30 AM 40.0092 -106.5856 274° West 367 422 35,700 629 Climbing Denver Center
Thu 10:42:32 AM 40.0156 -106.7150 274° West 371 427 36,000 145 Climbing Denver Center
Thu 10:43:34 AM 40.0222 -106.8631 273° West 368 423 36,000  Level Denver Center
Thu 10:44:36 AM 40.0292 -106.9886 274° West 365 420 36,000  Level Denver Center
Thu 10:45:38 AM 40.0353 -107.1375 273° West 368 423 36,000  Level Denver Center
Thu 10:46:40 AM 40.0406 -107.2622 273° West 363 418 36,000  Level Denver Center
Thu 10:47:42 AM 40.0475 -107.4069 274° West 360 414 36,000  Level Denver Center
Thu 10:48:44 AM 40.0519 -107.5356 273° West 368 423 36,000  Level Denver Center
Thu 10:49:46 AM 40.0581 -107.6822 273° West 365 420 36,000  Level Denver Center
Thu 10:50:49 AM 40.0633 -107.8086 273° West 367 422 36,000  Level Denver Center
Thu 10:51:51 AM 40.0689 -107.9561 273° West 366 421 36,000  Level Denver Center
Thu 10:52:53 AM 40.0750 -108.0833 274° West 367 422 36,000  Level Denver Center
Thu 10:53:55 AM 40.0811 -108.2347 273° West 375 432 36,000  Level Denver Center
Thu 10:54:57 AM 40.0878 -108.3594 274° West 365 420 36,000  Level Denver Center
Thu 10:55:59 AM 40.0936 -108.5069 273° West 365 420 36,000  Level Denver Center
Thu 10:57:01 AM 40.0986 -108.6342 273° West 368 423 36,000  Level Denver Center
Thu 10:58:03 AM 40.1042 -108.7808 273° West 366 421 36,000  Level Denver Center
Thu 10:59:05 AM 40.1089 -108.9069 273° West 365 420 36,000  Level Denver Center
Thu 11:00:07 AM 40.1142 -109.0531 273° West 363 418 36,000  Level Denver Center
Thu 11:00:46 AM 40.1178 -109.1381 273° West 365 420 36,000  Level Salt Lake Center
Thu 11:01:48 AM 40.1211 -109.2644 272° West 365 420 36,000 -97 Level Salt Lake Center
Thu 11:02:50 AM 40.1269 -109.4133 273° West 367 422 35,800 -532 Descending Salt Lake Center
Thu 11:03:52 AM 40.1311 -109.5414 272° West 370 426 34,900 -1,113 Descending Salt Lake Center
Thu 11:04:54 AM 40.1344 -109.6847 272° West 358 412 33,500 -1,258 Descending Salt Lake Center
Thu 11:05:56 AM 40.1392 -109.8139 273° West 368 423 32,300 -1,306 Descending Salt Lake Center
Thu 11:06:58 AM 40.1444 -109.9678 273° West 378 435 30,800 -1,113 Descending Salt Lake Center
Thu 11:08:00 AM 40.1478 -110.0967 272° West 374 430 30,000 -387 Descending Salt Lake Center
Thu 11:09:02 AM 40.1489 -110.2222 271° West 365 420 30,000  Level Salt Lake Center
Thu 11:10:04 AM 40.1467 -110.3719 269° West 368 423 30,000  Level Salt Lake Center
Thu 11:11:06 AM 40.1456 -110.5000 269° West 369 425 30,000 -387 Level Salt Lake Center
Thu 11:12:08 AM 40.1442 -110.6506 269° West 372 428 29,200 -1,306 Descending Salt Lake Center
Thu 11:13:10 AM 40.1419 -110.7761 269° West 364 419 27,300 -1,935 Descending Salt Lake Center
Thu 11:14:12 AM 40.1408 -110.9197 269° West 355 409 25,200 -1,790 Descending Salt Lake Center
Thu 11:15:14 AM 40.1400 -111.0336 269° West 348 400 23,600 -1,839 Descending Salt Lake Center
Thu 11:16:16 AM 40.1381 -111.1814 269° West 340 391 21,400 -1,935 Descending Salt Lake Center
Thu 11:17:18 AM 40.1356 -111.3014 268° West 333 383 19,600 -1,694 Descending Salt Lake Center
Thu 11:18:20 AM 40.1325 -111.4214 268° West 331 381 17,900 -1,694 Descending Salt Lake Center
Thu 11:19:22 AM 40.1314 -111.5414 269° West 329 379 16,100 -1,065 Descending Salt Lake Center
Thu 11:20:24 AM 40.1642 -111.6392 294° West 295 339 15,700 -1,309 Descending Salt Lake Center
Thu 11:21:12 AM 40.2094 -111.7172 307° West 289 333 13,700 -2,032 Descending Salt Lake Center
Thu 11:21:26 AM 40.2192 -111.7147 11° North 290 334 13,600 -1,500 Descending Salt Lake Center
Thu 11:22:12 AM 40.2722 -111.7828 316° Northwest 291 335 12,200 -1,645 Descending Salt Lake Center
Thu 11:22:28 AM 40.2925 -111.7981 330° Northwest 288 331 11,900 -923 Descending Salt Lake Center
Thu 11:23:30 AM 40.3517 -111.8644 319° Northwest 280 322 11,000 -509 Descending Salt Lake Center
Thu 11:24:14 AM 40.3911 -111.9142 316° Northwest 279 321 11,000  Level Salt Lake Center
Thu 11:24:32 AM 40.4111 -111.9289 331° Northwest 277 319 11,000 -545 Level Salt Lake Center
Thu 11:25:09 AM 40.4544 -111.9631 329° Northwest 284 327 10,500 -968 Descending Salt Lake Center
Thu 11:25:34 AM 40.4833 -111.9619 North 287 330 10,000 -1,600 Descending Salt Lake Center
Thu 11:26:09 AM 40.5336 -111.9703 353° North 283 326 8,900 -1,645 Descending Salt Lake Center
Thu 11:26:36 AM 40.5614 -111.9711 359° North 283 326 8,300 -1,475 Descending Salt Lake Center
Thu 11:27:10 AM 40.6083 -111.9789 353° North 254 292 7,400 -1,258 Descending Salt Lake Center
Thu 11:27:38 AM 40.6294 -111.9792 359° North 240 276 7,000 -1,082 Descending Salt Lake Center
Thu 11:28:11 AM 40.6661 -111.9875 350° North 206 237 6,300 -968 Descending Salt Lake Center
Thu 11:28:40 AM 40.6844 -111.9847 North 203 234 6,000 -896 Descending Salt Lake Center
Thu 11:29:18 AM 40.7186 -111.9922 351° North 168 193 5,300 -968 Descending Salt Lake Center
Thu 11:29:42 AM 40.7364 -111.9903 North 156 180 5,000 -689 Descending Salt Lake Center
Thu 11:30:19 AM 40.7561 -111.9964 347° North 139 160 4,600 -677 Descending Salt Lake Center
Thu 11:30:44 AM 40.7733 -111.9950 North 137 158 4,300 -720 Descending Salt Lake Center

Login

Don't have an account? Register now (free) for customized features, flight alerts, and more!